sensor_id;sensor_type;location;lat;lon;timestamp;P1;durP1;ratioP1;P2;durP2;ratioP2
13319;SDS011;59599;47.608;12.190;2023-03-03T05:02:00;25.07;;;16.90;;
13319;SDS011;59599;47.608;12.190;2023-03-03T05:04:25;21.77;;;16.50;;
13319;SDS011;59599;47.608;12.190;2023-03-03T05:06:51;21.37;;;16.67;;
13319;SDS011;59599;47.608;12.190;2023-03-03T05:09:17;22.33;;;15.73;;
13319;SDS011;59599;47.608;12.190;2023-03-03T05:11:43;22.33;;;16.57;;
13319;SDS011;59599;47.608;12.190;2023-03-03T05:14:09;22.87;;;17.30;;
13319;SDS011;59599;47.608;12.190;2023-03-03T05:16:36;23.90;;;17.57;;
13319;SDS011;59599;47.608;12.190;2023-03-03T05:19:01;24.00;;;16.57;;
13319;SDS011;59599;47.608;12.190;2023-03-03T05:21:27;22.17;;;15.87;;
13319;SDS011;59599;47.608;12.190;2023-03-03T05:23:53;20.87;;;16.30;;
13319;SDS011;59599;47.608;12.190;2023-03-03T05:26:19;26.30;;;16.27;;
13319;SDS011;59599;47.608;12.190;2023-03-03T05:28:45;22.50;;;16.43;;
13319;SDS011;59599;47.608;12.190;2023-03-03T05:31:10;24.17;;;17.00;;
13319;SDS011;59599;47.608;12.190;2023-03-03T05:33:36;23.33;;;17.40;;
13319;SDS011;59599;47.608;12.190;2023-03-03T05:36:02;24.40;;;17.57;;
13319;SDS011;59599;47.608;12.190;2023-03-03T05:38:28;25.77;;;17.90;;
13319;SDS011;59599;47.608;12.190;2023-03-03T05:40:54;26.53;;;18.23;;
13319;SDS011;59599;47.608;12.190;2023-03-03T05:43:20;27.93;;;19.53;;
13319;SDS011;59599;47.608;12.190;2023-03-03T05:45:45;29.13;;;18.50;;
13319;SDS011;59599;47.608;12.190;2023-03-03T05:48:11;30.13;;;18.77;;
13319;SDS011;59599;47.608;12.190;2023-03-03T05:50:37;30.40;;;20.27;;
13319;SDS011;59599;47.608;12.190;2023-03-03T05:53:02;28.00;;;19.83;;
13319;SDS011;59599;47.608;12.190;2023-03-03T05:55:28;26.00;;;19.30;;
13319;SDS011;59599;47.608;12.190;2023-03-03T05:57:54;25.90;;;18.83;;
13319;SDS011;59599;47.608;12.190;2023-03-03T06:00:20;26.97;;;19.17;;
13319;SDS011;59599;47.608;12.190;2023-03-03T06:02:46;29.03;;;18.77;;
13319;SDS011;59599;47.608;12.190;2023-03-03T06:05:12;25.47;;;18.70;;
13319;SDS011;59599;47.608;12.190;2023-03-03T06:07:37;26.57;;;19.00;;
13319;SDS011;59599;47.608;12.190;2023-03-03T06:10:03;24.80;;;18.57;;
13319;SDS011;59599;47.608;12.190;2023-03-03T06:12:29;27.17;;;19.13;;
13319;SDS011;59599;47.608;12.190;2023-03-03T06:14:55;27.63;;;18.83;;
13319;SDS011;59599;47.608;12.190;2023-03-03T06:17:21;24.77;;;18.53;;
13319;SDS011;59599;47.608;12.190;2023-03-03T06:19:47;25.63;;;17.57;;
13319;SDS011;59599;47.608;12.190;2023-03-03T06:22:13;26.07;;;18.83;;
13319;SDS011;59599;47.608;12.190;2023-03-03T06:24:39;28.50;;;18.73;;
13319;SDS011;59599;47.608;12.190;2023-03-03T06:27:04;28.40;;;20.03;;
13319;SDS011;59599;47.608;12.190;2023-03-03T06:29:30;24.83;;;18.77;;
13319;SDS011;59599;47.608;12.190;2023-03-03T06:31:55;24.83;;;18.37;;
13319;SDS011;59599;47.608;12.190;2023-03-03T06:34:21;25.30;;;17.80;;
13319;SDS011;59599;47.608;12.190;2023-03-03T06:36:47;21.87;;;16.83;;
13319;SDS011;59599;47.608;12.190;2023-03-03T06:39:13;21.93;;;17.80;;
13319;SDS011;59599;47.608;12.190;2023-03-03T06:41:39;29.30;;;19.17;;
13319;SDS011;59599;47.608;12.190;2023-03-03T06:44:05;25.63;;;18.73;;
13319;SDS011;59599;47.608;12.190;2023-03-03T06:46:30;27.83;;;19.97;;
13319;SDS011;59599;47.608;12.190;2023-03-03T06:48:56;26.23;;;20.57;;
13319;SDS011;59599;47.608;12.190;2023-03-03T06:51:23;24.23;;;18.80;;
13319;SDS011;59599;47.608;12.190;2023-03-03T06:53:53;26.33;;;20.43;;
13319;SDS011;59599;47.608;12.190;2023-03-03T06:56:20;29.00;;;20.73;;
13319;SDS011;59599;47.608;12.190;2023-03-03T06:58:47;30.93;;;20.90;;
13319;SDS011;59599;47.608;12.190;2023-03-03T07:01:15;26.53;;;18.60;;
13319;SDS011;59599;47.608;12.190;2023-03-03T07:03:41;27.30;;;19.33;;
13319;SDS011;59599;47.608;12.190;2023-03-03T07:06:10;31.70;;;19.70;;
13319;SDS011;59599;47.608;12.190;2023-03-03T07:08:52;25.93;;;18.87;;
13319;SDS011;59599;47.608;12.190;2023-03-03T07:11:19;24.03;;;18.37;;
13319;SDS011;59599;47.608;12.190;2023-03-03T07:13:50;28.63;;;18.30;;
13319;SDS011;59599;47.608;12.190;2023-03-03T07:16:17;24.17;;;17.97;;
13319;SDS011;59599;47.608;12.190;2023-03-03T07:18:46;29.03;;;20.10;;
13319;SDS011;59599;47.608;12.190;2023-03-03T07:23:40;32.13;;;21.13;;
13319;SDS011;59599;47.608;12.190;2023-03-03T07:26:14;28.07;;;20.50;;
13319;SDS011;59599;47.608;12.190;2023-03-03T07:28:58;29.20;;;20.00;;
13319;SDS011;59599;47.608;12.190;2023-03-03T07:31:42;29.07;;;19.80;;
13319;SDS011;59599;47.608;12.190;2023-03-03T07:34:21;28.17;;;20.00;;
13319;SDS011;59599;47.608;12.190;2023-03-03T07:36:49;27.57;;;19.00;;
13319;SDS011;59599;47.608;12.190;2023-03-03T07:41:50;26.87;;;19.10;;
13319;SDS011;59599;47.608;12.190;2023-03-03T07:44:25;26.20;;;19.27;;
13319;SDS011;59599;47.608;12.190;2023-03-03T07:46:58;27.23;;;19.73;;
13319;SDS011;59599;47.608;12.190;2023-03-03T07:49:35;25.50;;;18.80;;
13319;SDS011;59599;47.608;12.190;2023-03-03T07:52:16;24.47;;;18.30;;
13319;SDS011;59599;47.608;12.190;2023-03-03T07:54:47;29.10;;;19.40;;
13319;SDS011;59599;47.608;12.190;2023-03-03T07:59:51;29.67;;;19.07;;
13319;SDS011;59599;47.608;12.190;2023-03-03T08:02:40;27.10;;;19.17;;
13319;SDS011;59599;47.608;12.190;2023-03-03T08:07:50;26.43;;;19.17;;
13319;SDS011;59599;47.608;12.190;2023-03-03T08:10:30;26.07;;;18.87;;
13319;SDS011;59599;47.608;12.190;2023-03-03T08:13:19;24.93;;;18.37;;
13319;SDS011;59599;47.608;12.190;2023-03-03T08:15:48;26.90;;;17.93;;
13319;SDS011;59599;47.608;12.190;2023-03-03T08:21:00;24.33;;;18.47;;
13319;SDS011;59599;47.608;12.190;2023-03-03T08:23:31;25.07;;;18.93;;
13319;SDS011;59599;47.608;12.190;2023-03-03T08:25:57;24.07;;;18.23;;
13319;SDS011;59599;47.608;12.190;2023-03-03T08:28:22;26.80;;;18.13;;
13319;SDS011;59599;47.608;12.190;2023-03-03T08:30:48;22.23;;;17.73;;
13319;SDS011;59599;47.608;12.190;2023-03-03T08:33:14;24.77;;;18.27;;
13319;SDS011;59599;47.608;12.190;2023-03-03T08:35:40;26.97;;;18.80;;
13319;SDS011;59599;47.608;12.190;2023-03-03T08:38:06;28.50;;;19.20;;
13319;SDS011;59599;47.608;12.190;2023-03-03T08:40:33;27.83;;;19.97;;
13319;SDS011;59599;47.608;12.190;2023-03-03T08:42:59;26.57;;;19.13;;
13319;SDS011;59599;47.608;12.190;2023-03-03T08:45:25;27.63;;;19.27;;
13319;SDS011;59599;47.608;12.190;2023-03-03T08:47:51;25.77;;;18.80;;
13319;SDS011;59599;47.608;12.190;2023-03-03T08:50:17;27.40;;;18.60;;
13319;SDS011;59599;47.608;12.190;2023-03-03T08:52:43;25.73;;;19.00;;
13319;SDS011;59599;47.608;12.190;2023-03-03T08:55:09;26.17;;;19.43;;
13319;SDS011;59599;47.608;12.190;2023-03-03T08:57:35;23.27;;;18.07;;
13319;SDS011;59599;47.608;12.190;2023-03-03T09:00:03;25.90;;;19.20;;
13319;SDS011;59599;47.608;12.190;2023-03-03T09:02:30;26.50;;;19.37;;
13319;SDS011;59599;47.608;12.190;2023-03-03T09:04:55;25.20;;;19.70;;
13319;SDS011;59599;47.608;12.190;2023-03-03T09:07:21;26.90;;;20.33;;
13319;SDS011;59599;47.608;12.190;2023-03-03T09:09:47;27.07;;;19.33;;
13319;SDS011;59599;47.608;12.190;2023-03-03T09:12:28;25.37;;;18.67;;
13319;SDS011;59599;47.608;12.190;2023-03-03T09:14:57;24.40;;;18.70;;
13319;SDS011;59599;47.608;12.190;2023-03-03T09:17:36;30.30;;;19.63;;
13319;SDS011;59599;47.608;12.190;2023-03-03T09:20:14;25.30;;;18.70;;
13319;SDS011;59599;47.608;12.190;2023-03-03T09:22:58;24.10;;;18.60;;
13319;SDS011;59599;47.608;12.190;2023-03-03T09:25:40;27.43;;;18.77;;
13319;SDS011;59599;47.608;12.190;2023-03-03T09:28:14;24.40;;;19.10;;
13319;SDS011;59599;47.608;12.190;2023-03-03T09:30:45;27.73;;;19.07;;
13319;SDS011;59599;47.608;12.190;2023-03-03T09:33:21;26.00;;;19.73;;
13319;SDS011;59599;47.608;12.190;2023-03-03T09:35:51;29.07;;;18.37;;
13319;SDS011;59599;47.608;12.190;2023-03-03T09:38:25;30.33;;;20.93;;
13319;SDS011;59599;47.608;12.190;2023-03-03T09:43:36;28.30;;;19.63;;
13319;SDS011;59599;47.608;12.190;2023-03-03T09:46:42;23.80;;;17.53;;
13319;SDS011;59599;47.608;12.190;2023-03-03T10:03:46;25.87;;;19.73;;
13319;SDS011;59599;47.608;12.190;2023-03-03T10:11:31;28.87;;;19.33;;
13319;SDS011;59599;47.608;12.190;2023-03-03T10:17:05;29.87;;;20.53;;
13319;SDS011;59599;47.608;12.190;2023-03-03T10:25:17;29.10;;;20.07;;
13319;SDS011;59599;47.608;12.190;2023-03-03T10:36:19;29.60;;;22.47;;
13319;SDS011;59599;47.608;12.190;2023-03-03T10:42:10;34.10;;;21.73;;
13319;SDS011;59599;47.608;12.190;2023-03-03T10:45:09;29.20;;;22.23;;
13319;SDS011;59599;47.608;12.190;2023-03-03T11:01:13;35.37;;;22.90;;
13319;SDS011;59599;47.608;12.190;2023-03-03T11:04:04;34.27;;;23.13;;
13319;SDS011;59599;47.608;12.190;2023-03-03T11:06:39;32.23;;;23.17;;
13319;SDS011;59599;47.608;12.190;2023-03-03T11:09:23;39.93;;;23.97;;
13319;SDS011;59599;47.608;12.190;2023-03-03T11:15:08;31.97;;;22.47;;
13319;SDS011;59599;47.608;12.190;2023-03-03T11:23:18;34.47;;;24.27;;
13319;SDS011;59599;47.608;12.190;2023-03-03T11:31:32;33.03;;;23.10;;
13319;SDS011;59599;47.608;12.190;2023-03-03T11:36:49;36.43;;;24.80;;
13319;SDS011;59599;47.608;12.190;2023-03-03T11:39:29;35.57;;;23.53;;
13319;SDS011;59599;47.608;12.190;2023-03-03T11:44:46;36.67;;;24.20;;
13319;SDS011;59599;47.608;12.190;2023-03-03T11:55:03;36.57;;;25.07;;
13319;SDS011;59599;47.608;12.190;2023-03-03T12:00:20;37.80;;;25.43;;
13319;SDS011;59599;47.608;12.190;2023-03-03T12:05:51;39.30;;;25.70;;
13319;SDS011;59599;47.608;12.190;2023-03-03T12:11:01;36.77;;;25.30;;
13319;SDS011;59599;47.608;12.190;2023-03-03T12:16:14;36.47;;;25.50;;
13319;SDS011;59599;47.608;12.190;2023-03-03T12:18:52;37.73;;;25.40;;
13319;SDS011;59599;47.608;12.190;2023-03-03T12:21:42;38.40;;;24.80;;
13319;SDS011;59599;47.608;12.190;2023-03-03T12:32:58;33.73;;;23.53;;
13319;SDS011;59599;47.608;12.190;2023-03-03T12:35:42;36.33;;;24.57;;
13319;SDS011;59599;47.608;12.190;2023-03-03T12:38:47;35.57;;;24.33;;
13319;SDS011;59599;47.608;12.190;2023-03-03T12:44:16;37.30;;;26.07;;
13319;SDS011;59599;47.608;12.190;2023-03-03T12:46:58;41.50;;;25.23;;
13319;SDS011;59599;47.608;12.190;2023-03-03T12:49:45;35.23;;;24.23;;
13319;SDS011;59599;47.608;12.190;2023-03-03T12:55:42;37.63;;;26.33;;
13319;SDS011;59599;47.608;12.190;2023-03-03T12:58:14;40.00;;;25.60;;
13319;SDS011;59599;47.608;12.190;2023-03-03T13:00:48;39.93;;;25.53;;
13319;SDS011;59599;47.608;12.190;2023-03-03T13:03:34;39.07;;;25.47;;
13319;SDS011;59599;47.608;12.190;2023-03-03T13:06:27;37.83;;;25.87;;
13319;SDS011;59599;47.608;12.190;2023-03-03T13:11:48;45.83;;;25.23;;
13319;SDS011;59599;47.608;12.190;2023-03-03T13:14:42;33.00;;;24.37;;
13319;SDS011;59599;47.608;12.190;2023-03-03T13:17:26;39.80;;;27.03;;
13319;SDS011;59599;47.608;12.190;2023-03-03T13:19:59;38.43;;;26.37;;
13319;SDS011;59599;47.608;12.190;2023-03-03T13:22:35;37.93;;;26.40;;
13319;SDS011;59599;47.608;12.190;2023-03-03T13:27:49;35.43;;;25.67;;
13319;SDS011;59599;47.608;12.190;2023-03-03T13:35:32;37.87;;;25.90;;
13319;SDS011;59599;47.608;12.190;2023-03-03T13:38:17;35.57;;;26.00;;
13319;SDS011;59599;47.608;12.190;2023-03-03T13:41:09;40.70;;;29.67;;
13319;SDS011;59599;47.608;12.190;2023-03-03T13:46:32;39.00;;;26.77;;
13319;SDS011;59599;47.608;12.190;2023-03-03T13:51:57;39.90;;;27.20;;
13319;SDS011;59599;47.608;12.190;2023-03-03T13:54:49;34.90;;;25.87;;
13319;SDS011;59599;47.608;12.190;2023-03-03T14:05:24;40.37;;;28.50;;
13319;SDS011;59599;47.608;12.190;2023-03-03T14:07:58;38.47;;;27.23;;
13319;SDS011;59599;47.608;12.190;2023-03-03T14:10:30;37.33;;;25.97;;
13319;SDS011;59599;47.608;12.190;2023-03-03T14:13:03;38.92;;;30.65;;
13319;SDS011;59599;47.608;12.190;2023-03-03T14:15:34;39.73;;;28.07;;
13319;SDS011;59599;47.608;12.190;2023-03-03T14:20:36;41.90;;;27.43;;
13319;SDS011;59599;47.608;12.190;2023-03-03T14:26:07;38.93;;;27.53;;
13319;SDS011;59599;47.608;12.190;2023-03-03T14:31:37;39.40;;;26.43;;
13319;SDS011;59599;47.608;12.190;2023-03-03T14:34:13;42.93;;;27.40;;
13319;SDS011;59599;47.608;12.190;2023-03-03T14:37:21;37.57;;;27.80;;
13319;SDS011;59599;47.608;12.190;2023-03-03T14:40:31;35.60;;;26.10;;
13319;SDS011;59599;47.608;12.190;2023-03-03T14:42:48;43.37;;;27.90;;
13319;SDS011;59599;47.608;12.190;2023-03-03T14:45:30;38.90;;;25.37;;
13319;SDS011;59599;47.608;12.190;2023-03-03T14:48:16;36.70;;;26.23;;
13319;SDS011;59599;47.608;12.190;2023-03-03T14:50:48;34.83;;;26.20;;
13319;SDS011;59599;47.608;12.190;2023-03-03T14:53:15;38.20;;;26.40;;
13319;SDS011;59599;47.608;12.190;2023-03-03T14:55:50;38.47;;;26.53;;
13319;SDS011;59599;47.608;12.190;2023-03-03T14:58:28;38.30;;;27.83;;
13319;SDS011;59599;47.608;12.190;2023-03-03T15:03:46;40.43;;;27.07;;
13319;SDS011;59599;47.608;12.190;2023-03-03T15:06:25;37.43;;;27.23;;
13319;SDS011;59599;47.608;12.190;2023-03-03T15:09:24;35.00;;;25.50;;
13319;SDS011;59599;47.608;12.190;2023-03-03T15:11:55;41.73;;;27.33;;
13319;SDS011;59599;47.608;12.190;2023-03-03T15:14:27;39.00;;;26.43;;
13319;SDS011;59599;47.608;12.190;2023-03-03T15:17:11;41.77;;;27.10;;
13319;SDS011;59599;47.608;12.190;2023-03-03T15:22:36;40.60;;;26.47;;
13319;SDS011;59599;47.608;12.190;2023-03-03T15:27:52;39.77;;;27.37;;
13319;SDS011;59599;47.608;12.190;2023-03-03T15:30:34;44.03;;;28.63;;
13319;SDS011;59599;47.608;12.190;2023-03-03T15:33:28;37.00;;;26.67;;
13319;SDS011;59599;47.608;12.190;2023-03-03T15:38:59;38.20;;;27.03;;
13319;SDS011;59599;47.608;12.190;2023-03-03T15:44:31;38.13;;;26.57;;
13319;SDS011;59599;47.608;12.190;2023-03-03T15:55:35;40.37;;;28.40;;
13319;SDS011;59599;47.608;12.190;2023-03-03T15:58:17;37.63;;;27.33;;
13319;SDS011;59599;47.608;12.190;2023-03-03T16:03:42;38.30;;;28.40;;
13319;SDS011;59599;47.608;12.190;2023-03-03T16:09:39;38.07;;;26.50;;
13319;SDS011;59599;47.608;12.190;2023-03-03T16:12:15;43.83;;;28.80;;
13319;SDS011;59599;47.608;12.190;2023-03-03T16:14:46;41.10;;;27.57;;
13319;SDS011;59599;47.608;12.190;2023-03-03T16:26:19;37.93;;;28.13;;
13319;SDS011;59599;47.608;12.190;2023-03-03T16:31:53;40.67;;;27.13;;
13319;SDS011;59599;47.608;12.190;2023-03-03T16:34:41;42.40;;;29.07;;
13319;SDS011;59599;47.608;12.190;2023-03-03T16:37:35;42.07;;;28.23;;
13319;SDS011;59599;47.608;12.190;2023-03-03T16:42:48;41.80;;;28.30;;
13319;SDS011;59599;47.608;12.190;2023-03-03T16:45:40;37.97;;;28.07;;
13319;SDS011;59599;47.608;12.190;2023-03-03T16:48:10;44.50;;;29.40;;
13319;SDS011;59599;47.608;12.190;2023-03-03T16:56:23;45.07;;;32.07;;
13319;SDS011;59599;47.608;12.190;2023-03-03T17:10:24;41.40;;;29.33;;
13319;SDS011;59599;47.608;12.190;2023-03-03T17:21:09;39.47;;;28.37;;
13319;SDS011;59599;47.608;12.190;2023-03-03T17:34:47;42.10;;;28.17;;
13319;SDS011;59599;47.608;12.190;2023-03-03T17:42:23;38.83;;;27.73;;
13319;SDS011;59599;47.608;12.190;2023-03-03T17:58:14;41.70;;;30.97;;
13319;SDS011;59599;47.608;12.190;2023-03-03T18:03:55;39.90;;;29.30;;
13319;SDS011;59599;47.608;12.190;2023-03-03T18:06:51;43.97;;;30.20;;
13319;SDS011;59599;47.608;12.190;2023-03-03T18:15:39;47.70;;;32.13;;
13319;SDS011;59599;47.608;12.190;2023-03-03T18:20:29;47.27;;;33.50;;
13319;SDS011;59599;47.608;12.190;2023-03-03T18:22:56;50.23;;;33.47;;
13319;SDS011;59599;47.608;12.190;2023-03-03T18:25:28;42.03;;;30.83;;
13319;SDS011;59599;47.608;12.190;2023-03-03T18:31:20;46.67;;;31.83;;
13319;SDS011;59599;47.608;12.190;2023-03-03T18:34:07;45.73;;;29.83;;
13319;SDS011;59599;47.608;12.190;2023-03-03T18:36:54;42.87;;;32.63;;
13319;SDS011;59599;47.608;12.190;2023-03-03T18:39:37;51.20;;;32.20;;
13319;SDS011;59599;47.608;12.190;2023-03-03T18:42:29;47.10;;;31.67;;
13319;SDS011;59599;47.608;12.190;2023-03-03T18:45:10;50.00;;;33.63;;
13319;SDS011;59599;47.608;12.190;2023-03-03T18:50:33;42.43;;;29.40;;
13319;SDS011;59599;47.608;12.190;2023-03-03T18:53:17;47.67;;;30.37;;
13319;SDS011;59599;47.608;12.190;2023-03-03T18:55:47;46.90;;;31.80;;
13319;SDS011;59599;47.608;12.190;2023-03-03T19:04:02;46.80;;;31.60;;
13319;SDS011;59599;47.608;12.190;2023-03-03T19:09:08;41.27;;;29.63;;
13319;SDS011;59599;47.608;12.190;2023-03-03T19:14:18;68.93;;;43.20;;
13319;SDS011;59599;47.608;12.190;2023-03-03T19:16:45;46.50;;;32.67;;
13319;SDS011;59599;47.608;12.190;2023-03-03T19:19:15;44.90;;;31.37;;
13319;SDS011;59599;47.608;12.190;2023-03-03T19:21:43;43.60;;;31.93;;
13319;SDS011;59599;47.608;12.190;2023-03-03T19:29:43;44.57;;;31.80;;
13319;SDS011;59599;47.608;12.190;2023-03-03T19:32:32;50.87;;;32.60;;
13319;SDS011;59599;47.608;12.190;2023-03-03T19:37:59;50.97;;;32.03;;
13319;SDS011;59599;47.608;12.190;2023-03-03T19:40:46;40.73;;;30.30;;
13319;SDS011;59599;47.608;12.190;2023-03-03T19:45:56;45.97;;;31.23;;
13319;SDS011;59599;47.608;12.190;2023-03-03T19:51:23;49.17;;;31.80;;
13319;SDS011;59599;47.608;12.190;2023-03-03T19:56:57;43.93;;;29.83;;
13319;SDS011;59599;47.608;12.190;2023-03-03T19:59:30;41.00;;;29.30;;
13319;SDS011;59599;47.608;12.190;2023-03-03T20:04:54;42.20;;;27.80;;
13319;SDS011;59599;47.608;12.190;2023-03-03T20:07:32;41.27;;;27.40;;
13319;SDS011;59599;47.608;12.190;2023-03-03T20:12:57;42.90;;;28.83;;
13319;SDS011;59599;47.608;12.190;2023-03-03T20:18:07;40.53;;;28.23;;
13319;SDS011;59599;47.608;12.190;2023-03-03T20:21:03;43.53;;;30.13;;
13319;SDS011;59599;47.608;12.190;2023-03-03T20:23:46;42.10;;;27.70;;
13319;SDS011;59599;47.608;12.190;2023-03-03T20:29:13;41.83;;;27.50;;
13319;SDS011;59599;47.608;12.190;2023-03-03T20:32:02;42.83;;;28.90;;
13319;SDS011;59599;47.608;12.190;2023-03-03T20:37:36;46.20;;;29.63;;
13319;SDS011;59599;47.608;12.190;2023-03-03T20:43:27;60.47;;;35.37;;
13319;SDS011;59599;47.608;12.190;2023-03-03T20:48:37;49.73;;;31.30;;
13319;SDS011;59599;47.608;12.190;2023-03-03T20:54:20;41.00;;;26.87;;
13319;SDS011;59599;47.608;12.190;2023-03-03T20:57:02;40.70;;;26.40;;
13319;SDS011;59599;47.608;12.190;2023-03-03T21:02:16;40.17;;;26.63;;
13319;SDS011;59599;47.608;12.190;2023-03-03T21:04:44;39.03;;;26.87;;
13319;SDS011;59599;47.608;12.190;2023-03-03T21:07:22;40.37;;;26.83;;
13319;SDS011;59599;47.608;12.190;2023-03-03T21:09:49;41.17;;;26.00;;
13319;SDS011;59599;47.608;12.190;2023-03-03T21:12:28;42.60;;;26.90;;
13319;SDS011;59599;47.608;12.190;2023-03-03T21:15:02;40.20;;;26.17;;
13319;SDS011;59599;47.608;12.190;2023-03-03T21:17:31;38.90;;;27.00;;
13319;SDS011;59599;47.608;12.190;2023-03-03T21:20:16;36.83;;;25.63;;
13319;SDS011;59599;47.608;12.190;2023-03-03T21:22:53;39.87;;;25.00;;
13319;SDS011;59599;47.608;12.190;2023-03-03T21:33:51;43.07;;;27.23;;
13319;SDS011;59599;47.608;12.190;2023-03-03T21:36:22;37.93;;;26.33;;
13319;SDS011;59599;47.608;12.190;2023-03-03T21:41:51;46.57;;;27.67;;
13319;SDS011;59599;47.608;12.190;2023-03-03T21:47:05;39.63;;;26.43;;
13319;SDS011;59599;47.608;12.190;2023-03-03T21:49:32;42.47;;;27.13;;
13319;SDS011;59599;47.608;12.190;2023-03-03T21:51:58;43.50;;;26.17;;
13319;SDS011;59599;47.608;12.190;2023-03-03T21:54:24;37.63;;;26.57;;
13319;SDS011;59599;47.608;12.190;2023-03-03T21:56:50;39.67;;;25.77;;
13319;SDS011;59599;47.608;12.190;2023-03-03T21:59:17;41.40;;;27.30;;
13319;SDS011;59599;47.608;12.190;2023-03-03T22:01:43;37.83;;;26.07;;
13319;SDS011;59599;47.608;12.190;2023-03-03T22:04:09;38.47;;;25.47;;
13319;SDS011;59599;47.608;12.190;2023-03-03T22:06:34;39.30;;;26.40;;
13319;SDS011;59599;47.608;12.190;2023-03-03T22:09:04;44.50;;;28.07;;
13319;SDS011;59599;47.608;12.190;2023-03-03T22:11:30;43.47;;;28.47;;
13319;SDS011;59599;47.608;12.190;2023-03-03T22:13:56;41.27;;;28.50;;
13319;SDS011;59599;47.608;12.190;2023-03-03T22:16:22;50.00;;;31.40;;
13319;SDS011;59599;47.608;12.190;2023-03-03T22:18:49;47.50;;;30.80;;
13319;SDS011;59599;47.608;12.190;2023-03-03T22:21:15;43.47;;;29.40;;
13319;SDS011;59599;47.608;12.190;2023-03-03T22:23:41;44.37;;;28.70;;
13319;SDS011;59599;47.608;12.190;2023-03-03T22:26:07;43.27;;;30.20;;
13319;SDS011;59599;47.608;12.190;2023-03-03T22:28:33;46.43;;;29.90;;
13319;SDS011;59599;47.608;12.190;2023-03-03T22:30:59;43.57;;;28.77;;
13319;SDS011;59599;47.608;12.190;2023-03-03T22:33:25;47.87;;;29.07;;
13319;SDS011;59599;47.608;12.190;2023-03-03T22:35:51;42.83;;;27.50;;
13319;SDS011;59599;47.608;12.190;2023-03-03T22:38:17;43.00;;;28.53;;
13319;SDS011;59599;47.608;12.190;2023-03-03T22:40:42;45.67;;;29.53;;
13319;SDS011;59599;47.608;12.190;2023-03-03T22:43:08;41.00;;;27.37;;
13319;SDS011;59599;47.608;12.190;2023-03-03T22:45:38;47.73;;;29.53;;
13319;SDS011;59599;47.608;12.190;2023-03-03T22:48:04;43.13;;;27.70;;
13319;SDS011;59599;47.608;12.190;2023-03-03T22:50:30;38.77;;;27.10;;
13319;SDS011;59599;47.608;12.190;2023-03-03T22:52:56;42.43;;;26.00;;
13319;SDS011;59599;47.608;12.190;2023-03-03T22:55:21;44.37;;;27.77;;
13319;SDS011;59599;47.608;12.190;2023-03-03T22:57:47;39.60;;;26.93;;
